createdAt,value
2019-05-25T00:01:54.082Z,94964.73
2019-05-25T00:06:55.437Z,94958.21
2019-05-25T00:11:56.857Z,94958.59
2019-05-25T00:16:58.166Z,94963.42
2019-05-25T00:21:59.474Z,94956.93
2019-05-25T00:27:01.630Z,94952.70
2019-05-25T00:32:03.811Z,94950.63
2019-05-25T00:37:05.104Z,94957.03
2019-05-25T00:42:07.352Z,94953.16
2019-05-25T00:47:08.757Z,94955.12
2019-05-25T00:52:10.889Z,94947.36
2019-05-25T00:57:12.318Z,94947.48
2019-05-25T01:02:13.646Z,94942.28
2019-05-25T01:07:15.010Z,94944.11
2019-05-25T01:12:16.340Z,94946.19
2019-05-25T01:17:17.690Z,94944.89
2019-05-25T01:22:18.994Z,94944.30
2019-05-25T01:27:20.299Z,94954.20
2019-05-25T01:32:21.710Z,94952.52
2019-05-25T01:37:23.052Z,94961.72
2019-05-25T01:42:24.417Z,94960.46
2019-05-25T01:47:25.799Z,94953.44
2019-05-25T01:52:27.190Z,94948.86
2019-05-25T01:57:28.514Z,94955.91
2019-05-25T02:02:29.972Z,94951.95
2019-05-25T02:07:31.349Z,94955.22
2019-05-25T02:12:32.731Z,94955.33
2019-05-25T02:17:34.121Z,94951.13
2019-05-25T02:22:35.557Z,94955.30
2019-05-25T02:27:36.894Z,94952.09
2019-05-25T02:32:38.329Z,94954.56
2019-05-25T02:37:39.675Z,94951.73
2019-05-25T02:42:41.050Z,94959.60
2019-05-25T02:47:43.176Z,94952.09
2019-05-25T02:52:44.552Z,94947.11
2019-05-25T02:57:45.930Z,94948.71
2019-05-25T03:02:47.536Z,94955.42
2019-05-25T03:07:48.793Z,94953.98
2019-05-25T03:12:50.185Z,94953.02
2019-05-25T03:17:51.549Z,94955.48
2019-05-25T03:22:52.906Z,94958.66
2019-05-25T03:27:54.263Z,94959.73
2019-05-25T03:32:55.682Z,94964.41
2019-05-25T03:37:57.072Z,94964.78
2019-05-25T03:42:59.192Z,94968.04
2019-05-25T03:48:00.613Z,94968.95
2019-05-25T03:53:01.958Z,94962.61
2019-05-25T03:58:03.385Z,94962.84
2019-05-25T04:03:04.721Z,94967.83
2019-05-25T04:08:06.064Z,94965.66
2019-05-25T04:13:07.422Z,94972.73
2019-05-25T04:18:08.800Z,94985.39
2019-05-25T04:23:10.102Z,94987.59
2019-05-25T04:28:11.509Z,94984.85
2019-05-25T04:33:12.920Z,94987.25
2019-05-25T04:38:15.043Z,94992.17
2019-05-25T04:43:16.480Z,94984.86
2019-05-25T04:48:17.857Z,94986.23
2019-05-25T04:53:19.289Z,94992.21
2019-05-25T04:58:21.454Z,94994.59
2019-05-25T05:03:23.628Z,95000.48
2019-05-25T05:08:25.695Z,94989.94
2019-05-25T05:13:27.049Z,94987.56
2019-05-25T05:18:28.470Z,94992.42
2019-05-25T05:23:29.938Z,94997.86
2019-05-25T05:28:32.057Z,94998.31
2019-05-25T05:33:33.507Z,95001.60
2019-05-25T05:38:34.972Z,95005.25
2019-05-25T05:43:36.372Z,95007.09
2019-05-25T05:48:37.779Z,95005.73
2019-05-25T05:53:39.896Z,94996.72
2019-05-25T05:58:41.201Z,95007.59
2019-05-25T06:03:42.575Z,95014.34
2019-05-25T06:08:47.791Z,95017.41
2019-05-25T06:13:49.384Z,95024.87
2019-05-25T06:18:50.731Z,95027.76
2019-05-25T06:23:52.109Z,95021.03
2019-05-25T06:28:53.489Z,95015.70
2019-05-25T06:33:55.214Z,95023.16
2019-05-25T06:38:56.681Z,95021.28
2019-05-25T06:43:59.252Z,95026.96
2019-05-25T06:49:01.402Z,95033.86
2019-05-25T06:54:02.801Z,95034.52
2019-05-25T06:59:04.198Z,95041.50
2019-05-25T07:04:09.824Z,95047.14
2019-05-25T07:09:11.205Z,95046.66
2019-05-25T07:14:12.539Z,95046.52
2019-05-25T07:19:13.891Z,95043.39
2019-05-25T07:24:15.257Z,95049.31
2019-05-25T07:29:16.597Z,95053.06
2019-05-25T07:34:17.936Z,95055.91
2019-05-25T07:39:19.275Z,95062.44
2019-05-25T07:44:21.381Z,95069.20
2019-05-25T07:49:23.112Z,95063.01
2019-05-25T07:54:24.491Z,95066.91
2019-05-25T07:59:26.537Z,95072.28
2019-05-25T08:04:27.870Z,95077.45
2019-05-25T08:09:29.216Z,95074.23
2019-05-25T08:14:30.579Z,95076.41
2019-05-25T08:19:32.640Z,95065.93
2019-05-25T08:24:33.970Z,95074.40
2019-05-25T08:29:35.338Z,95071.83
2019-05-25T08:34:36.700Z,95071.16
2019-05-25T08:39:38.028Z,95079.48
2019-05-25T08:44:39.366Z,95079.38
2019-05-25T08:49:40.739Z,95077.32
2019-05-25T08:54:42.761Z,95072.30
2019-05-25T08:59:44.077Z,95065.85
2019-05-25T09:04:46.152Z,95070.45
2019-05-25T09:09:47.448Z,95068.55
2019-05-25T09:14:48.735Z,95075.28
2019-05-25T09:19:50.109Z,95077.55
2019-05-25T09:24:51.558Z,95084.14
2019-05-25T09:29:52.898Z,95081.33
2019-05-25T09:34:54.222Z,95076.80
2019-05-25T09:39:55.550Z,95084.27
2019-05-25T09:44:56.865Z,95078.20
2019-05-25T09:49:58.177Z,95080.13
2019-05-25T09:54:59.543Z,95084.13
2019-05-25T10:00:00.848Z,95073.39
2019-05-25T10:05:02.156Z,95080.83
2019-05-25T10:10:03.554Z,95085.06
2019-05-25T10:15:04.962Z,95081.30
2019-05-25T10:20:07.074Z,95084.92
2019-05-25T10:25:08.425Z,95072.26
2019-05-25T10:30:09.825Z,95069.05
2019-05-25T10:35:12.046Z,95069.91
2019-05-25T10:40:13.379Z,95064.84
2019-05-25T10:45:14.697Z,95055.94
2019-05-25T10:50:16.752Z,95057.24
2019-05-25T10:55:18.085Z,95051.42
2019-05-25T11:00:19.447Z,95041.66
2019-05-25T11:05:20.813Z,95031.77
2019-05-25T11:10:22.581Z,95032.27
2019-05-25T11:15:24.501Z,95016.01
2019-05-25T11:20:25.914Z,95024.47
2019-05-25T11:25:27.297Z,95018.13
2019-05-25T11:30:28.721Z,95011.84
2019-05-25T11:35:30.117Z,95015.06
2019-05-25T11:40:31.548Z,95011.26
2019-05-25T11:45:32.865Z,95012.11
2019-05-25T11:50:34.191Z,95025.83
2019-05-25T11:55:36.237Z,95025.69
2019-05-25T12:00:38.885Z,95021.86
2019-05-25T12:05:40.196Z,95018.64
2019-05-25T12:10:41.613Z,95015.16
2019-05-25T12:15:42.938Z,95006.72
2019-05-25T12:20:45.212Z,95011.52
2019-05-25T12:25:54.689Z,95006.27
2019-05-25T12:30:57.658Z,94997.78
2019-05-25T12:35:58.992Z,94996.08
2019-05-25T12:41:00.321Z,94992.22
2019-05-25T12:46:09.908Z,94989.41
2019-05-25T12:51:11.271Z,94997.08
2019-05-25T12:56:12.579Z,94986.86
2019-05-25T13:01:13.889Z,94988.65
2019-05-25T13:06:18.096Z,94986.95
2019-05-25T13:11:17.315Z,94985.74
2019-05-25T13:16:19.397Z,94990.48
2019-05-25T13:21:21.465Z,94990.88
2019-05-25T13:26:22.785Z,94986.63
2019-05-25T13:31:24.102Z,94985.86
2019-05-25T13:36:25.460Z,94988.11
2019-05-25T13:41:26.772Z,94981.97
2019-05-25T13:46:28.073Z,94988.09
2019-05-25T13:51:29.405Z,94984.02
2019-05-25T13:56:30.701Z,94985.80
2019-05-25T14:01:32.069Z,94984.89
2019-05-25T14:06:33.409Z,94981.59
2019-05-25T14:11:34.740Z,94988.08
2019-05-25T14:16:36.056Z,94972.74
2019-05-25T14:21:37.371Z,94979.42
2019-05-25T14:26:38.661Z,94976.03
2019-05-25T14:31:45.558Z,94979.23
2019-05-25T14:36:41.547Z,94976.82
2019-05-25T14:41:43.597Z,94963.97
2019-05-25T14:46:44.956Z,94964.89
2019-05-25T14:51:46.281Z,94961.88
2019-05-25T14:56:47.626Z,94968.53
2019-05-25T15:02:01.463Z,94972.40
2019-05-25T15:06:50.623Z,94966.38
2019-05-25T15:11:54.024Z,94974.27
2019-05-25T15:16:53.361Z,94976.15
2019-05-25T15:21:54.819Z,94974.72
2019-05-25T15:26:56.106Z,94979.54
2019-05-25T15:31:57.436Z,94979.32
2019-05-25T15:36:58.782Z,94975.81
2019-05-25T15:42:00.145Z,94975.73
2019-05-25T15:47:04.694Z,94984.33
2019-05-25T15:52:02.803Z,94990.62
2019-05-25T15:57:04.116Z,94987.15
2019-05-25T16:02:05.456Z,94990.97
2019-05-25T16:07:06.789Z,94993.44
2019-05-25T16:12:08.115Z,94996.38
2019-05-25T16:17:10.194Z,95010.06
2019-05-25T16:22:11.609Z,95015.34
2019-05-25T16:27:13.656Z,95031.94
2019-05-25T16:32:14.973Z,95034.12
2019-05-25T16:37:16.369Z,95043.00
2019-05-25T16:42:17.689Z,95055.02
2019-05-25T16:47:19.016Z,95055.12
2019-05-25T16:52:20.341Z,95057.94
2019-05-25T16:57:21.685Z,95071.56
2019-05-25T17:02:23.010Z,95074.50
2019-05-25T17:07:24.354Z,95072.84
2019-05-25T17:12:26.466Z,95075.69
2019-05-25T17:17:27.806Z,95070.53
2019-05-25T17:22:29.875Z,95064.04
2019-05-25T17:27:31.937Z,95070.83
2019-05-25T17:32:33.246Z,95076.22
2019-05-25T17:37:34.554Z,95094.42
2019-05-25T17:42:35.884Z,95101.88
2019-05-25T17:47:37.256Z,95103.84
2019-05-25T17:52:38.597Z,95104.52
2019-05-25T17:57:41.315Z,95099.20
2019-05-25T18:02:42.628Z,95105.46
2019-05-25T18:07:47.833Z,95102.45
2019-05-25T18:12:51.718Z,95109.76
2019-05-25T18:18:01.110Z,95107.59
2019-05-25T18:23:06.018Z,95116.36
2019-05-25T18:28:10.381Z,95117.48
2019-05-25T18:33:27.371Z,95123.98
2019-05-25T18:38:34.490Z,95130.23
2019-05-25T18:43:40.756Z,95132.57
2019-05-25T18:48:45.073Z,95142.30
2019-05-25T18:53:50.328Z,95138.62
2019-05-25T18:58:53.488Z,95146.28
2019-05-25T19:03:58.246Z,95148.59
2019-05-25T19:09:07.089Z,95145.20
2019-05-25T19:14:08.453Z,95150.84
2019-05-25T19:19:12.532Z,95156.35
2019-05-25T19:24:13.893Z,95164.80
2019-05-25T19:29:15.974Z,95163.16
2019-05-25T19:34:17.318Z,95170.74
2019-05-25T19:39:18.645Z,95180.52
2019-05-25T19:44:19.948Z,95184.59
2019-05-25T19:49:21.271Z,95184.50
2019-05-25T19:54:22.618Z,95187.90
2019-05-25T19:59:23.989Z,95190.69
2019-05-25T20:04:25.293Z,95194.78
2019-05-25T20:09:26.627Z,95206.99
2019-05-25T20:14:27.957Z,95206.27
2019-05-25T20:19:30.004Z,95213.06
2019-05-25T20:24:31.348Z,95210.88
2019-05-25T20:29:32.664Z,95226.23
2019-05-25T20:34:34.778Z,95220.65
2019-05-25T20:39:37.720Z,95230.08
2019-05-25T20:44:39.030Z,95229.45
2019-05-25T20:49:41.082Z,95229.74
2019-05-25T20:54:42.419Z,95233.72
2019-05-25T20:59:43.726Z,95228.77
2019-05-25T21:04:45.095Z,95234.38
2019-05-25T21:09:47.145Z,95239.84
2019-05-25T21:14:48.509Z,95240.09
2019-05-25T21:19:50.449Z,95237.06
2019-05-25T21:24:51.799Z,95247.68
2019-05-25T21:29:53.863Z,95242.35
2019-05-25T21:34:56.690Z,95241.11
2019-05-25T21:39:58.327Z,95247.30
2019-05-25T21:44:59.650Z,95249.75
2019-05-25T21:50:00.964Z,95251.41
2019-05-25T21:55:03.071Z,95248.09
2019-05-25T22:00:04.412Z,95250.91
2019-05-25T22:05:06.454Z,95242.09
2019-05-25T22:10:07.766Z,95245.27
2019-05-25T22:15:09.852Z,95245.72
2019-05-25T22:20:14.963Z,95243.82
2019-05-25T22:25:16.305Z,95254.30
2019-05-25T22:30:17.696Z,95251.40
2019-05-25T22:35:19.045Z,95263.39
2019-05-25T22:40:21.043Z,95260.14
2019-05-25T22:45:22.879Z,95264.18
2019-05-25T22:50:24.337Z,95270.97
2019-05-25T22:55:26.429Z,95261.73
2019-05-25T23:00:28.626Z,95258.88
2019-05-25T23:05:30.069Z,95268.20
2019-05-25T23:10:31.526Z,95264.98
2019-05-25T23:15:33.552Z,95261.22
2019-05-25T23:20:36.736Z,95266.13
2019-05-25T23:25:38.294Z,95259.89
2019-05-25T23:30:39.702Z,95262.67
2019-05-25T23:35:41.041Z,95256.08
2019-05-25T23:40:42.375Z,95256.23
2019-05-25T23:45:45.200Z,95249.88
2019-05-25T23:50:46.510Z,95245.79
2019-05-25T23:55:47.907Z,95249.03
